Terminal Aerodrome Forecast
Issued by NWS

Home | Current Version | Previous Version | Text Only | Print | Product List | Glossary On
Versions: 1 2 3 4 5 6 7 8 9 10 11 12 13 14 15 16 17 18 19 20
000
FTUS42 KGSP 270540
TAFAND
TAF
KAND 270540Z 2706/2806 21007KT P6SM OVC080
     FM270800 23008KT P6SM SCT250
     FM271300 27013KT P6SM FEW250
     FM272300 30009KT P6SM FEW250
     FM280500 31004KT P6SM FEW250=

USA.gov is the U.S. government's official web portal to all federal, state and local government web resources and services.